Weather at Linköping City Airport

Public forecast

Using degrees Celsius for public forecast. Weather courtesy of forecast.io.

Current aviation weather report (METAR) for Linköping City Airport

Retrieved 2021/08/02 19:20 UTC (14 minutes ago):

ESSL 021920Z AUTO 33007KT 9999 BKN033/// OVC049/// 14/11 Q1006

Aviation forecast (TAF) for Linköping City Airport

Forecast is more than 12 hours old.

Retrieved 2019/05/16 09:33 UTC (2 years ago):

TAF ESSL 161130Z 1609/1621 09014G21KT CAVOK BECMG 1616/1618 08008G15KT RMK MIL